createdAt,value
2023-04-16T00:02:04.101Z,11.21
2023-04-16T00:04:36.037Z,11.10
2023-04-16T00:07:06.659Z,11.26
2023-04-16T00:09:38.105Z,11.32
2023-04-16T00:12:09.249Z,11.25
2023-04-16T00:14:40.220Z,11.24
2023-04-16T00:17:11.183Z,11.21
2023-04-16T00:19:44.726Z,11.01
2023-04-16T00:22:14.135Z,11.33
2023-04-16T00:24:43.593Z,11.24
2023-04-16T00:27:13.648Z,11.12
2023-04-16T00:29:44.418Z,11.13
2023-04-16T00:32:17.168Z,11.22
2023-04-16T00:34:47.243Z,11.05
2023-04-16T00:37:24.463Z,11.11
2023-04-16T00:39:55.512Z,11.10
2023-04-16T00:42:27.998Z,11.19
2023-04-16T00:45:17.659Z,11.26
2023-04-16T00:47:47.527Z,11.22
2023-04-16T00:50:18.837Z,11.22
2023-04-16T00:52:53.049Z,11.29
2023-04-16T00:55:23.455Z,11.32
2023-04-16T00:57:53.166Z,11.25
2023-04-16T01:00:24.052Z,11.32
2023-04-16T01:02:55.918Z,11.33
2023-04-16T01:05:27.108Z,11.34
2023-04-16T01:07:59.794Z,11.31
2023-04-16T01:10:30.423Z,11.31
2023-04-16T01:13:00.968Z,11.40
2023-04-16T01:15:31.132Z,11.54
2023-04-16T01:18:01.762Z,11.50
2023-04-16T01:20:36.555Z,11.53
2023-04-16T01:23:06.566Z,11.41
2023-04-16T01:25:36.786Z,11.45
2023-04-16T01:28:06.936Z,11.40
2023-04-16T01:30:37.107Z,11.43
2023-04-16T01:33:13.948Z,11.32
2023-04-16T01:35:43.906Z,11.39
2023-04-16T01:38:14.857Z,11.32
2023-04-16T01:40:44.336Z,11.33
2023-04-16T01:43:16.925Z,11.36
2023-04-16T01:45:47.033Z,11.40
2023-04-16T01:48:17.199Z,11.33
2023-04-16T01:50:48.015Z,11.44
2023-04-16T02:46:22.028Z,11.60
2023-04-16T04:52:21.504Z,11.95
2023-04-16T04:54:54.898Z,12.02
2023-04-16T04:57:25.901Z,12.05
2023-04-16T04:59:58.641Z,12.13
2023-04-16T05:02:30.126Z,12.11
2023-04-16T05:05:00.823Z,12.07
2023-04-16T05:07:31.937Z,12.19
2023-04-16T05:10:02.271Z,12.27
2023-04-16T05:12:36.579Z,12.22
2023-04-16T05:15:07.264Z,12.11
2023-04-16T05:17:37.612Z,12.14
2023-04-16T05:20:09.289Z,12.17
2023-04-16T05:22:39.821Z,12.25
2023-04-16T05:25:12.020Z,12.18
2023-04-16T05:27:42.895Z,12.12
2023-04-16T05:30:14.102Z,12.23
2023-04-16T05:32:45.516Z,12.22
2023-04-16T05:35:19.984Z,12.12
2023-04-16T05:37:50.298Z,12.21
2023-04-16T05:40:21.719Z,12.13
2023-04-16T05:42:51.660Z,12.40
2023-04-16T05:45:26.679Z,12.40
2023-04-16T05:47:58.021Z,12.18
2023-04-16T05:50:31.338Z,12.13
2023-04-16T05:53:01.464Z,12.27
2023-04-16T05:55:32.372Z,12.07
2023-04-16T05:58:04.741Z,12.06
2023-04-16T06:00:35.073Z,11.96
2023-04-16T06:03:11.758Z,12.06
2023-04-16T06:05:42.345Z,12.08
2023-04-16T06:08:12.624Z,12.00
2023-04-16T06:10:43.384Z,12.06
2023-04-16T06:13:15.488Z,11.91
2023-04-16T06:15:47.489Z,11.83
2023-04-16T06:18:17.822Z,11.93
2023-04-16T06:20:48.482Z,11.98
2023-04-16T06:23:18.667Z,11.87
2023-04-16T06:25:52.207Z,12.01
2023-04-16T06:28:27.112Z,11.90
2023-04-16T06:30:57.140Z,11.99
2023-04-16T06:33:27.979Z,12.01
2023-04-16T06:36:03.503Z,11.99
2023-04-16T06:38:40.545Z,12.02
2023-04-16T06:41:10.143Z,12.06
2023-04-16T06:43:40.009Z,11.99
2023-04-16T06:46:09.887Z,12.10
2023-04-16T06:48:47.036Z,12.03
2023-04-16T06:51:16.955Z,11.95
2023-04-16T06:53:47.571Z,11.92
2023-04-16T06:56:19.075Z,11.98
2023-04-16T06:58:51.207Z,12.00
2023-04-16T07:01:20.787Z,11.90
2023-04-16T07:03:50.836Z,12.07
2023-04-16T07:06:23.113Z,12.00
2023-04-16T07:08:56.672Z,12.09
2023-04-16T07:11:27.423Z,12.06
2023-04-16T07:13:58.817Z,12.11
2023-04-16T07:16:33.322Z,12.10
2023-04-16T07:19:03.071Z,12.09
2023-04-16T07:21:32.374Z,12.01
2023-04-16T07:24:02.598Z,11.93
2023-04-16T07:26:34.156Z,12.02
2023-04-16T07:29:04.070Z,12.07
2023-04-16T07:31:34.371Z,12.07
2023-04-16T07:34:03.844Z,12.10
2023-04-16T07:36:34.263Z,11.97
2023-04-16T07:39:10.624Z,11.96
2023-04-16T07:41:42.171Z,12.06
2023-04-16T07:44:11.882Z,11.87
2023-04-16T07:46:46.807Z,11.84
2023-04-16T07:49:17.634Z,11.91
2023-04-16T07:51:48.198Z,11.87
2023-04-16T07:54:18.154Z,11.69
2023-04-16T07:56:50.895Z,11.90
2023-04-16T07:59:24.003Z,11.92
2023-04-16T08:01:54.523Z,11.78
2023-04-16T08:04:27.661Z,11.89
2023-04-16T08:06:58.211Z,11.92
2023-04-16T08:09:29.780Z,11.91
2023-04-16T08:12:01.259Z,11.78
2023-04-16T08:14:31.641Z,11.83
2023-04-16T08:17:01.073Z,11.87
2023-04-16T08:19:31.646Z,11.81
2023-04-16T08:22:02.868Z,11.87
2023-04-16T08:24:34.036Z,11.82
2023-04-16T08:27:15.522Z,11.90
2023-04-16T08:29:50.329Z,11.89
2023-04-16T08:32:20.661Z,11.87
2023-04-16T08:34:50.624Z,11.83
2023-04-16T08:37:20.797Z,11.87
2023-04-16T08:39:51.037Z,11.89
2023-04-16T08:42:30.440Z,11.91
2023-04-16T08:45:16.519Z,11.98
2023-04-16T08:47:49.716Z,12.00
2023-04-16T08:50:27.185Z,11.99
2023-04-16T08:53:02.622Z,11.98
2023-04-16T08:55:42.412Z,11.88
2023-04-16T08:58:22.982Z,11.83
2023-04-16T09:00:54.509Z,11.84
2023-04-16T09:03:25.659Z,11.64
2023-04-16T09:05:56.599Z,11.88
2023-04-16T09:08:27.372Z,11.75
2023-04-16T09:10:57.707Z,11.73
2023-04-16T09:13:30.207Z,11.96
2023-04-16T09:16:03.121Z,11.97
2023-04-16T09:18:34.958Z,11.80
2023-04-16T09:21:05.748Z,11.81
2023-04-16T09:23:35.935Z,11.81
2023-04-16T09:26:08.352Z,11.79
2023-04-16T09:28:49.150Z,11.73
2023-04-16T09:31:20.786Z,11.72
2023-04-16T09:34:05.236Z,11.88
2023-04-16T09:36:37.567Z,12.01
2023-04-16T09:39:07.394Z,12.22
2023-04-16T09:41:40.550Z,12.23
2023-04-16T09:44:10.695Z,12.06
2023-04-16T09:46:44.170Z,11.97
2023-04-16T09:49:19.732Z,11.78
2023-04-16T09:51:54.206Z,11.97
2023-04-16T09:54:35.432Z,12.05
2023-04-16T09:57:07.989Z,12.10
2023-04-16T09:59:44.757Z,11.85
2023-04-16T10:02:16.429Z,11.73
2023-04-16T10:04:52.896Z,11.75
2023-04-16T10:07:30.822Z,11.62
2023-04-16T10:10:00.409Z,11.62
2023-04-16T10:12:33.391Z,11.78
2023-04-16T10:15:03.536Z,11.74
2023-04-16T10:17:33.821Z,11.63
2023-04-16T10:20:03.878Z,11.42
2023-04-16T10:22:36.244Z,11.67
2023-04-16T10:25:14.916Z,11.88
2023-04-16T10:27:56.247Z,11.86
2023-04-16T10:30:25.215Z,11.70
2023-04-16T10:32:53.886Z,11.69
2023-04-16T10:35:23.082Z,11.74
2023-04-16T10:38:16.956Z,11.81
2023-04-16T10:40:45.789Z,11.74
2023-04-16T10:43:18.487Z,11.70
2023-04-16T10:45:48.057Z,11.74
2023-04-16T10:48:21.058Z,11.68
2023-04-16T10:50:57.795Z,11.66
2023-04-16T10:53:27.638Z,11.55
2023-04-16T10:56:15.933Z,11.49
2023-04-16T10:58:47.050Z,11.50
2023-04-16T11:01:19.861Z,11.48
2023-04-16T11:03:50.362Z,11.47
2023-04-16T11:06:26.854Z,11.49
2023-04-16T11:08:56.263Z,11.47
2023-04-16T11:11:26.595Z,11.45
2023-04-16T11:13:58.332Z,11.37
2023-04-16T11:16:32.193Z,11.41
2023-04-16T11:19:04.694Z,11.49
2023-04-16T11:21:42.994Z,11.51
2023-04-16T11:24:13.649Z,11.58
2023-04-16T11:26:42.509Z,11.60
2023-04-16T11:29:15.412Z,11.48
2023-04-16T11:31:54.745Z,11.48
2023-04-16T11:34:23.889Z,11.53
2023-04-16T11:36:55.663Z,11.49
2023-04-16T11:39:24.830Z,11.51
2023-04-16T11:41:54.144Z,11.37
2023-04-16T11:44:27.755Z,11.30
2023-04-16T11:46:59.014Z,11.35
2023-04-16T11:49:29.331Z,11.40
2023-04-16T11:51:58.393Z,11.35
2023-04-16T11:54:27.470Z,11.45
2023-04-16T11:56:56.414Z,11.43
2023-04-16T11:59:25.931Z,11.56
2023-04-16T12:01:58.418Z,11.39
2023-04-16T12:04:30.269Z,11.23
2023-04-16T12:07:12.229Z,11.16
2023-04-16T12:09:44.213Z,10.93
2023-04-16T12:12:32.431Z,10.79
2023-04-16T12:15:05.682Z,10.91
2023-04-16T12:17:36.009Z,11.17
2023-04-16T12:20:09.549Z,11.05
2023-04-16T12:22:44.957Z,10.88
2023-04-16T12:25:17.466Z,11.05
2023-04-16T12:27:51.501Z,10.96
2023-04-16T12:30:23.518Z,11.14
2023-04-16T12:33:12.193Z,11.16
2023-04-16T12:35:43.893Z,11.09
2023-04-16T12:38:12.805Z,11.26
2023-04-16T12:40:42.028Z,11.10
2023-04-16T12:43:13.450Z,10.99
2023-04-16T12:45:42.771Z,11.17
2023-04-16T12:48:11.975Z,11.12
2023-04-16T12:50:44.703Z,11.08
2023-04-16T12:53:13.518Z,11.11
2023-04-16T12:55:42.249Z,11.16
2023-04-16T12:58:12.559Z,11.10
2023-04-16T13:00:41.766Z,11.06
2023-04-16T13:03:10.795Z,10.92
2023-04-16T13:05:40.895Z,10.94
2023-04-16T13:08:09.957Z,10.97
2023-04-16T13:10:39.381Z,11.09
2023-04-16T13:13:08.484Z,11.06
2023-04-16T13:15:37.515Z,11.02
2023-04-16T13:18:06.728Z,10.97
2023-04-16T13:20:36.336Z,11.01
2023-04-16T13:23:05.559Z,10.80
2023-04-16T13:25:34.615Z,10.68
2023-04-16T13:28:03.470Z,10.79
2023-04-16T13:30:33.818Z,10.68
2023-04-16T13:33:03.135Z,10.75
2023-04-16T13:35:32.858Z,10.71
2023-04-16T13:38:01.619Z,10.60
2023-04-16T13:40:30.638Z,10.55
2023-04-16T13:42:59.584Z,10.54
2023-04-16T13:45:28.347Z,10.74
2023-04-16T13:47:57.734Z,10.67
2023-04-16T13:50:26.588Z,10.52
2023-04-16T13:52:55.595Z,10.52
2023-04-16T13:55:24.534Z,10.74
2023-04-16T13:57:53.694Z,10.76
2023-04-16T14:00:22.853Z,10.81
2023-04-16T14:02:52.203Z,10.64
2023-04-16T14:05:21.304Z,10.74
2023-04-16T14:07:50.468Z,10.76
2023-04-16T14:10:19.432Z,10.84
2023-04-16T14:12:48.320Z,10.72
2023-04-16T14:15:17.145Z,10.86
2023-04-16T14:17:46.085Z,10.86
2023-04-16T14:20:15.010Z,10.83
2023-04-16T14:22:44.524Z,10.87
2023-04-16T14:25:13.250Z,10.84
2023-04-16T14:27:43.185Z,11.08
2023-04-16T14:30:12.081Z,11.02
2023-04-16T14:32:42.115Z,11.01
2023-04-16T14:35:11.255Z,10.91
2023-04-16T14:37:41.253Z,10.85
2023-04-16T14:40:11.494Z,10.83
2023-04-16T14:42:40.810Z,10.84
2023-04-16T14:45:10.045Z,10.77
2023-04-16T14:47:46.334Z,10.83
2023-04-16T14:50:15.928Z,10.75
2023-04-16T14:52:44.972Z,10.83
2023-04-16T14:55:13.769Z,10.81
2023-04-16T14:57:43.094Z,10.89
2023-04-16T15:00:13.714Z,10.58
2023-04-16T15:02:43.657Z,10.54
2023-04-16T15:05:12.351Z,10.47
2023-04-16T15:07:41.533Z,10.64
2023-04-16T15:10:11.245Z,10.63
2023-04-16T15:12:41.511Z,10.49
2023-04-16T15:15:11.125Z,10.81
2023-04-16T15:17:40.682Z,10.84
2023-04-16T15:20:09.993Z,10.66
2023-04-16T15:22:38.937Z,10.80
2023-04-16T15:25:08.524Z,10.86
2023-04-16T15:27:38.629Z,10.97
2023-04-16T15:30:10.148Z,11.08
2023-04-16T15:32:39.743Z,10.93
2023-04-16T15:35:11.205Z,10.90
2023-04-16T15:37:40.677Z,10.84
2023-04-16T15:40:11.336Z,10.76
2023-04-16T15:42:40.829Z,10.45
2023-04-16T15:45:10.312Z,10.30
2023-04-16T15:47:41.670Z,10.27
2023-04-16T15:50:10.719Z,10.45
2023-04-16T15:52:40.778Z,10.47
2023-04-16T15:55:10.369Z,10.70
2023-04-16T15:57:39.696Z,10.45
2023-04-16T16:00:14.275Z,10.30
2023-04-16T16:02:44.232Z,10.31
2023-04-16T16:05:16.239Z,10.23
2023-04-16T16:07:47.377Z,10.25
2023-04-16T16:10:16.326Z,10.18
2023-04-16T16:12:45.077Z,10.15
2023-04-16T16:15:14.088Z,9.96
2023-04-16T16:17:43.193Z,9.98
2023-04-16T16:20:13.072Z,9.97
2023-04-16T16:22:45.626Z,9.98
2023-04-16T16:25:14.596Z,10.00
2023-04-16T16:27:44.222Z,10.14
2023-04-16T16:30:13.555Z,10.26
2023-04-16T16:32:44.329Z,10.17
2023-04-16T16:35:13.291Z,10.22
2023-04-16T16:37:42.793Z,10.25
2023-04-16T16:40:12.259Z,10.19
2023-04-16T16:42:41.423Z,10.34
2023-04-16T16:45:11.135Z,10.36
2023-04-16T16:47:40.068Z,10.43
2023-04-16T16:50:11.652Z,10.47
2023-04-16T16:52:40.392Z,10.39
2023-04-16T16:55:11.413Z,10.64
2023-04-16T16:57:42.137Z,10.51
2023-04-16T17:00:15.458Z,10.64
2023-04-16T17:02:44.661Z,10.57
2023-04-16T17:05:14.017Z,10.41
2023-04-16T17:07:42.796Z,10.64
2023-04-16T17:10:13.884Z,10.78
2023-04-16T17:12:43.019Z,10.84
2023-04-16T17:15:12.441Z,10.75
2023-04-16T17:17:41.314Z,10.73
2023-04-16T17:20:11.234Z,10.75
2023-04-16T17:22:41.073Z,10.85
2023-04-16T17:25:10.403Z,10.83
2023-04-16T17:27:42.285Z,10.81
2023-04-16T17:30:11.296Z,10.62
2023-04-16T17:32:40.409Z,10.50
2023-04-16T17:35:10.548Z,10.66
2023-04-16T17:37:39.478Z,10.57
2023-04-16T17:40:09.157Z,10.54
2023-04-16T17:42:38.110Z,10.56
2023-04-16T17:45:07.997Z,10.45
2023-04-16T17:47:36.880Z,10.40
2023-04-16T17:50:06.554Z,10.31
2023-04-16T17:52:38.444Z,10.39
2023-04-16T17:55:08.049Z,10.43
2023-04-16T17:57:37.666Z,10.26
2023-04-16T18:00:10.233Z,10.29
2023-04-16T18:02:43.252Z,10.37
2023-04-16T18:05:12.395Z,10.41
2023-04-16T18:07:50.719Z,10.25
2023-04-16T18:10:20.096Z,10.15
2023-04-16T18:12:49.419Z,10.06
2023-04-16T18:15:18.829Z,10.19
2023-04-16T18:17:48.898Z,10.13
2023-04-16T18:20:20.141Z,9.96
2023-04-16T18:22:49.161Z,10.03
2023-04-16T18:25:20.742Z,10.10
2023-04-16T18:27:55.149Z,10.15
2023-04-16T18:30:26.680Z,10.09
2023-04-16T18:33:21.425Z,10.05
2023-04-16T18:35:45.443Z,9.99
2023-04-16T18:38:14.593Z,9.92
2023-04-16T18:40:43.635Z,10.04
2023-04-16T18:43:13.433Z,10.00
2023-04-16T18:45:42.878Z,10.01
2023-04-16T18:48:11.932Z,9.96
2023-04-16T18:50:41.512Z,9.83
2023-04-16T18:53:10.810Z,9.92
2023-04-16T18:55:39.913Z,9.92
2023-04-16T18:58:09.202Z,10.06
2023-04-16T19:00:38.710Z,10.11
2023-04-16T19:03:07.998Z,10.01
2023-04-16T19:05:37.957Z,9.99
2023-04-16T19:08:06.927Z,9.90
2023-04-16T19:10:37.532Z,10.00
2023-04-16T19:13:06.708Z,9.85
2023-04-16T19:15:36.053Z,9.79
2023-04-16T19:18:05.952Z,9.92
2023-04-16T19:20:36.110Z,9.97
2023-04-16T19:23:06.016Z,9.96
2023-04-16T19:25:39.410Z,9.98
2023-04-16T19:28:08.720Z,9.89
2023-04-16T19:30:39.838Z,9.89
2023-04-16T19:33:08.913Z,9.98
2023-04-16T19:35:37.956Z,9.98
2023-04-16T19:38:10.685Z,10.09
2023-04-16T19:40:41.035Z,10.36
2023-04-16T19:43:10.117Z,10.26
2023-04-16T19:45:47.098Z,10.17
2023-04-16T19:48:16.671Z,10.14
2023-04-16T19:50:46.137Z,10.41
2023-04-16T19:53:17.513Z,10.34
2023-04-16T19:55:46.572Z,10.20
2023-04-16T19:58:15.992Z,10.34
2023-04-16T20:00:45.228Z,10.26
2023-04-16T20:03:14.566Z,10.27
2023-04-16T20:05:44.185Z,10.17
2023-04-16T20:08:13.057Z,10.18
2023-04-16T20:10:42.062Z,10.23
2023-04-16T20:13:14.361Z,10.30
2023-04-16T20:15:44.321Z,10.27
2023-04-16T20:18:14.111Z,10.31
2023-04-16T20:20:43.370Z,10.36
2023-04-16T20:23:12.108Z,10.43
2023-04-16T20:25:44.277Z,10.55
2023-04-16T20:28:16.944Z,10.44
2023-04-16T20:30:46.385Z,10.43
2023-04-16T20:33:16.092Z,10.40
2023-04-16T20:35:45.800Z,10.41
2023-04-16T20:38:14.806Z,10.50
2023-04-16T20:40:45.618Z,10.54
2023-04-16T20:43:19.178Z,10.50
2023-04-16T20:45:50.356Z,10.68
2023-04-16T20:48:19.525Z,10.68
2023-04-16T20:50:49.192Z,10.75
2023-04-16T20:53:20.736Z,10.78
2023-04-16T20:55:49.796Z,10.81
2023-04-16T20:58:19.052Z,10.92
2023-04-16T21:00:52.010Z,10.82
2023-04-16T21:03:21.204Z,10.64
2023-04-16T21:05:50.883Z,10.60
2023-04-16T21:08:23.627Z,10.67
2023-04-16T21:10:52.475Z,10.66
2023-04-16T21:13:22.550Z,10.71
2023-04-16T21:15:51.659Z,10.47
2023-04-16T21:18:20.720Z,10.42
2023-04-16T21:20:49.600Z,10.72
2023-04-16T21:23:18.493Z,10.64
2023-04-16T21:25:47.403Z,10.67
2023-04-16T21:28:16.260Z,10.69
2023-04-16T21:30:45.160Z,10.48
2023-04-16T21:33:15.079Z,10.26
2023-04-16T21:35:44.315Z,10.41
2023-04-16T21:38:13.567Z,10.34
2023-04-16T21:40:42.419Z,10.43
2023-04-16T21:43:11.333Z,10.42
2023-04-16T21:45:41.485Z,10.33
2023-04-16T21:48:10.852Z,10.45
2023-04-16T21:50:40.086Z,10.64
2023-04-16T21:53:08.952Z,10.50
2023-04-16T21:55:38.290Z,10.55
2023-04-16T21:58:07.421Z,10.63
2023-04-16T22:00:36.440Z,10.61
2023-04-16T22:03:05.718Z,10.60
2023-04-16T22:05:35.067Z,10.67
2023-04-16T22:08:17.042Z,10.70
2023-04-16T22:10:50.456Z,10.73
2023-04-16T22:13:19.455Z,10.73
2023-04-16T22:15:48.930Z,10.63
2023-04-16T22:18:18.597Z,10.57
2023-04-16T22:20:51.464Z,10.56
2023-04-16T22:23:21.832Z,10.61
2023-04-16T22:25:51.025Z,10.60
2023-04-16T22:28:20.102Z,10.66
2023-04-16T22:30:49.623Z,10.77
2023-04-16T22:33:19.087Z,10.81
2023-04-16T22:35:47.865Z,10.85
2023-04-16T22:38:18.620Z,10.93
2023-04-16T22:40:49.333Z,10.97
2023-04-16T22:43:18.481Z,11.01
2023-04-16T22:45:47.224Z,10.96
2023-04-16T22:48:17.670Z,11.08
2023-04-16T22:50:48.821Z,10.94
2023-04-16T22:53:17.560Z,10.96
2023-04-16T22:55:46.576Z,11.08
2023-04-16T22:58:17.167Z,11.13
2023-04-16T23:00:48.019Z,11.10
2023-04-16T23:03:17.302Z,11.10
2023-04-16T23:05:46.233Z,11.02
2023-04-16T23:08:15.217Z,10.77
2023-04-16T23:10:45.200Z,10.78
2023-04-16T23:13:14.075Z,10.75
2023-04-16T23:15:44.189Z,10.78
2023-04-16T23:18:13.963Z,10.78
2023-04-16T23:20:43.034Z,10.70
2023-04-16T23:23:11.942Z,10.79
2023-04-16T23:25:42.053Z,10.80
2023-04-16T23:35:11.308Z,10.60
2023-04-16T23:51:19.242Z,10.83
